Time;durP1;ratioP1;P1;durP2;ratioP2;P2;SDS_P1;SDS_P2;PMS_P1;PMS_P2;Temp;Humidity;BMP_temperature;BMP_pressure;BME280_temperature;BME280_humidity;BME280_pressure;Samples;Min_cycle;Max_cycle;Signal;HPM_P1;HPM_P2
2023/04/03 00:01:11;;;;;;;;;31.50;30.00;;;;;;;;5014788;28;45363;-73
2023/04/03 00:03:36;;;;;;;;;30.00;27.75;;;;;;;;5014709;28;46057;-72
2023/04/03 00:06:02;;;;;;;;;32.50;27.25;;;;;;;;5014537;28;45503;-73
2023/04/03 00:08:27;;;;;;;;;34.00;32.50;;;;;;;;4997115;28;45317;-72
2023/04/03 00:10:52;;;;;;;;;33.00;28.50;;;;;;;;4996934;28;45405;-72
2023/04/03 00:13:17;;;;;;;;;31.25;28.00;;;;;;;;5014329;28;45577;-72
2023/04/03 00:15:43;;;;;;;;;35.50;29.00;;;;;;;;5014501;28;45385;-72
2023/04/03 00:18:08;;;;;;;;;29.75;25.50;;;;;;;;5014689;28;45302;-73
2023/04/03 00:20:34;;;;;;;;;30.75;27.00;;;;;;;;5014796;28;45392;-73
2023/04/03 00:22:59;;;;;;;;;27.75;27.75;;;;;;;;5013877;28;46471;-73
2023/04/03 00:25:25;;;;;;;;;26.75;24.25;;;;;;;;5014382;28;45451;-73
2023/04/03 00:27:50;;;;;;;;;32.25;30.50;;;;;;;;5014737;28;45619;-73
2023/04/03 00:30:17;;;;;;;;;34.00;30.50;;;;;;;;5015516;28;45324;-73
2023/04/03 00:32:43;;;;;;;;;30.75;24.25;;;;;;;;5017967;28;46390;-72
2023/04/03 00:35:08;;;;;;;;;30.50;29.25;;;;;;;;5000105;28;45468;-72
2023/04/03 00:37:34;;;;;;;;;38.00;30.50;;;;;;;;5018067;28;45475;-71
2023/04/03 00:39:59;;;;;;;;;31.50;28.50;;;;;;;;5019450;28;45516;-73
2023/04/03 00:42:25;;;;;;;;;30.25;26.25;;;;;;;;5027701;28;45715;-72
2023/04/03 00:44:56;;;;;;;;;29.25;28.25;;;;;;;;5028119;28;45447;-71
2023/04/03 00:47:22;;;;;;;;;27.00;22.75;;;;;;;;5027646;28;45321;-71
2023/04/03 00:49:48;;;;;;;;;30.25;28.00;;;;;;;;5027683;28;45333;-71
2023/04/03 00:52:16;;;;;;;;;41.50;33.50;;;;;;;;5026850;28;47396;-71
2023/04/03 00:54:42;;;;;;;;;39.00;34.00;;;;;;;;5023471;28;45470;-71
2023/04/03 00:57:08;;;;;;;;;26.25;23.75;;;;;;;;5028216;28;45388;-71
2023/04/03 00:59:35;;;;;;;;;35.75;34.00;;;;;;;;5027153;28;45439;-72
2023/04/03 01:02:00;;;;;;;;;37.00;29.50;;;;;;;;5025856;28;46477;-72
2023/04/03 01:04:27;;;;;;;;;41.00;34.25;;;;;;;;5008665;28;45409;-72
2023/04/03 01:06:55;;;;;;;;;30.00;29.50;;;;;;;;5026979;28;45380;-72
2023/04/03 01:09:20;;;;;;;;;32.50;27.50;;;;;;;;5020577;28;45222;-72
2023/04/03 01:11:46;;;;;;;;;34.50;29.75;;;;;;;;5006468;28;45562;-71
2023/04/03 01:14:11;;;;;;;;;38.75;30.75;;;;;;;;5023990;28;45419;-72
2023/04/03 01:16:36;;;;;;;;;32.50;30.75;;;;;;;;5006970;28;45383;-71
2023/04/03 01:19:03;;;;;;;;;36.00;28.75;;;;;;;;5026481;28;45238;-71
2023/04/03 01:21:47;;;;;;;;;31.25;31.25;;;;;;;;5019037;28;45294;-72
2023/04/03 01:24:19;;;;;;;;;36.25;32.50;;;;;;;;5023921;28;45371;-71
2023/04/03 01:26:45;;;;;;;;;36.25;26.00;;;;;;;;5026771;28;45431;-71
2023/04/03 01:29:11;;;;;;;;;34.25;32.00;;;;;;;;5026595;28;45266;-71
2023/04/03 01:31:39;;;;;;;;;28.25;28.25;;;;;;;;5025119;28;45351;-71
2023/04/03 01:34:04;;;;;;;;;37.00;34.00;;;;;;;;5025469;28;45489;-71
2023/04/03 01:36:31;;;;;;;;;33.00;32.00;;;;;;;;5026640;28;45408;-72
2023/04/03 01:38:56;;;;;;;;;34.00;30.00;;;;;;;;5020644;28;45399;-72
2023/04/03 01:41:22;;;;;;;;;26.00;26.00;;;;;;;;5016532;28;45501;-72
2023/04/03 01:43:48;;;;;;;;;29.75;28.00;;;;;;;;5016089;28;45403;-72
2023/04/03 01:46:14;;;;;;;;;34.25;27.75;;;;;;;;5017067;28;45544;-72
2023/04/03 01:48:40;;;;;;;;;28.50;25.75;;;;;;;;5016747;28;45364;-72
2023/04/03 01:51:05;;;;;;;;;29.25;28.25;;;;;;;;5016120;28;46689;-72
2023/04/03 01:53:30;;;;;;;;;24.00;18.00;;;;;;;;5016212;28;45375;-72
2023/04/03 01:55:56;;;;;;;;;30.00;29.00;;;;;;;;5016641;28;45392;-72
2023/04/03 01:58:21;;;;;;;;;28.50;27.50;;;;;;;;5016637;28;45412;-72
2023/04/03 02:00:46;;;;;;;;;30.25;26.75;;;;;;;;5016477;28;45356;-72
2023/04/03 02:03:11;;;;;;;;;34.50;30.75;;;;;;;;5016274;28;45431;-72
2023/04/03 02:05:37;;;;;;;;;25.50;23.50;;;;;;;;5016427;28;45328;-71
2023/04/03 02:08:02;;;;;;;;;29.50;26.50;;;;;;;;5016276;28;45414;-71
2023/04/03 02:10:27;;;;;;;;;23.75;19.75;;;;;;;;5016362;28;45597;-72
2023/04/03 02:12:53;;;;;;;;;30.00;26.25;;;;;;;;5016046;28;45723;-72
2023/04/03 02:15:18;;;;;;;;;32.25;24.50;;;;;;;;5016514;28;45300;-71
2023/04/03 02:17:43;;;;;;;;;31.25;28.50;;;;;;;;5016306;28;45416;-72
2023/04/03 02:20:09;;;;;;;;;22.25;22.00;;;;;;;;5016172;28;45382;-72
2023/04/03 02:22:34;;;;;;;;;23.25;23.25;;;;;;;;5015546;28;45414;-73
2023/04/03 02:25:00;;;;;;;;;25.75;25.25;;;;;;;;5016009;28;45399;-72
2023/04/03 02:27:25;;;;;;;;;26.75;23.50;;;;;;;;5015835;28;45518;-73
2023/04/03 02:29:50;;;;;;;;;19.25;19.25;;;;;;;;5015877;28;45491;-72
2023/04/03 02:32:16;;;;;;;;;28.50;26.00;;;;;;;;5015855;28;45448;-73
2023/04/03 02:34:41;;;;;;;;;27.75;22.00;;;;;;;;4997840;28;45365;-72
2023/04/03 02:37:06;;;;;;;;;27.00;23.00;;;;;;;;4998083;28;45258;-72
2023/04/03 02:39:31;;;;;;;;;24.25;22.75;;;;;;;;5015425;28;45438;-72
2023/04/03 02:41:56;;;;;;;;;29.75;26.00;;;;;;;;5015587;28;45373;-72
2023/04/03 02:44:23;;;;;;;;;26.50;21.75;;;;;;;;5015809;28;45446;-72
2023/04/03 02:46:48;;;;;;;;;24.00;22.25;;;;;;;;5015956;28;45451;-72
2023/04/03 02:49:13;;;;;;;;;30.00;23.50;;;;;;;;5015112;28;45420;-72
2023/04/03 02:51:39;;;;;;;;;20.25;20.00;;;;;;;;5015410;28;45371;-72
2023/04/03 02:54:04;;;;;;;;;23.00;20.75;;;;;;;;5014280;28;45415;-72
2023/04/03 02:56:29;;;;;;;;;23.00;20.00;;;;;;;;5015143;28;45372;-71
2023/04/03 02:58:55;;;;;;;;;19.75;19.50;;;;;;;;5014400;28;47233;-72
2023/04/03 03:01:20;;;;;;;;;25.00;20.25;;;;;;;;5015463;28;45439;-72
2023/04/03 03:03:45;;;;;;;;;14.00;14.00;;;;;;;;5015330;28;45453;-72
2023/04/03 03:06:12;;;;;;;;;19.50;15.75;;;;;;;;5015660;28;45418;-72
2023/04/03 03:08:37;;;;;;;;;21.00;18.75;;;;;;;;5015515;28;45631;-71
2023/04/03 03:11:03;;;;;;;;;13.75;11.25;;;;;;;;4997535;28;45479;-71
2023/04/03 03:13:28;;;;;;;;;14.25;14.25;;;;;;;;4997623;28;45687;-72
2023/04/03 03:15:53;;;;;;;;;16.75;15.25;;;;;;;;4997534;28;45401;-72
2023/04/03 03:18:19;;;;;;;;;18.25;17.00;;;;;;;;5014859;28;45396;-71
2023/04/03 03:20:44;;;;;;;;;20.00;14.50;;;;;;;;5015012;28;45479;-72
2023/04/03 03:23:10;;;;;;;;;19.50;15.75;;;;;;;;5015140;28;45529;-72
2023/04/03 03:25:39;;;;;;;;;12.75;12.75;;;;;;;;4997411;28;45577;-71
2023/04/03 03:28:04;;;;;;;;;15.25;13.75;;;;;;;;5015180;28;45880;-72
2023/04/03 03:30:30;;;;;;;;;19.50;17.50;;;;;;;;5014672;28;45457;-72
2023/04/03 03:32:55;;;;;;;;;12.00;12.00;;;;;;;;5015012;28;45240;-71
2023/04/03 03:35:20;;;;;;;;;18.00;14.50;;;;;;;;5014325;28;45348;-72
2023/04/03 03:37:45;;;;;;;;;11.25;11.00;;;;;;;;4997222;28;45721;-72
2023/04/03 03:40:12;;;;;;;;;17.50;15.25;;;;;;;;5015143;28;45435;-72
2023/04/03 03:42:38;;;;;;;;;17.75;16.75;;;;;;;;5015074;28;45417;-72
2023/04/03 03:45:03;;;;;;;;;19.00;14.00;;;;;;;;5015103;28;45330;-72
2023/04/03 03:47:28;;;;;;;;;17.00;17.00;;;;;;;;5013978;28;45838;-72
2023/04/03 03:49:54;;;;;;;;;22.50;21.25;;;;;;;;5014536;28;45265;-72
2023/04/03 03:52:19;;;;;;;;;14.50;14.00;;;;;;;;4997228;28;45278;-71
2023/04/03 03:54:44;;;;;;;;;14.50;14.50;;;;;;;;5014428;28;45565;-72
2023/04/03 03:57:10;;;;;;;;;15.75;14.50;;;;;;;;5014717;28;46073;-71
2023/04/03 03:59:35;;;;;;;;;21.50;19.00;;;;;;;;5014413;28;45559;-71
2023/04/03 04:02:01;;;;;;;;;15.75;15.50;;;;;;;;5014037;28;45398;-72
2023/04/03 04:04:26;;;;;;;;;21.25;18.00;;;;;;;;5014601;28;45356;-72
2023/04/03 04:06:51;;;;;;;;;14.50;14.50;;;;;;;;5017256;28;45380;-72
2023/04/03 04:09:16;;;;;;;;;13.75;10.00;;;;;;;;5017967;28;45375;-71
2023/04/03 04:11:42;;;;;;;;;16.00;14.25;;;;;;;;5018145;28;45342;-72
2023/04/03 04:14:07;;;;;;;;;13.75;11.50;;;;;;;;5018120;28;45368;-71
2023/04/03 04:16:32;;;;;;;;;16.50;16.25;;;;;;;;5017806;28;47310;-71
2023/04/03 04:18:58;;;;;;;;;19.75;18.00;;;;;;;;5017985;28;45284;-71
2023/04/03 04:21:23;;;;;;;;;17.50;17.50;;;;;;;;5017585;28;45713;-70
2023/04/03 04:23:48;;;;;;;;;18.25;16.00;;;;;;;;5017654;28;45708;-71
2023/04/03 04:26:13;;;;;;;;;23.50;19.75;;;;;;;;5017398;28;45490;-71
2023/04/03 04:28:38;;;;;;;;;18.00;16.00;;;;;;;;4999651;28;45693;-71
2023/04/03 04:31:04;;;;;;;;;8.50;7.75;;;;;;;;5017936;28;45399;-70
2023/04/03 04:33:29;;;;;;;;;19.00;17.50;;;;;;;;5017543;28;45467;-71
2023/04/03 04:35:55;;;;;;;;;14.00;14.00;;;;;;;;5017307;28;45825;-71
2023/04/03 04:38:20;;;;;;;;;19.25;15.00;;;;;;;;5017402;28;45301;-72
2023/04/03 04:40:46;;;;;;;;;19.00;17.75;;;;;;;;5017308;28;45336;-71
2023/04/03 04:43:14;;;;;;;;;16.25;12.75;;;;;;;;5017718;28;45401;-71
2023/04/03 04:45:39;;;;;;;;;16.50;13.25;;;;;;;;4999173;28;45639;-72
2023/04/03 04:48:04;;;;;;;;;14.00;12.00;;;;;;;;5016982;28;45309;-72
2023/04/03 04:50:30;;;;;;;;;18.00;18.00;;;;;;;;5017499;28;45327;-72
2023/04/03 04:52:55;;;;;;;;;21.25;20.00;;;;;;;;5017191;28;45499;-72
2023/04/03 04:55:20;;;;;;;;;25.75;21.00;;;;;;;;4998594;28;47062;-72
2023/04/03 04:57:45;;;;;;;;;20.75;17.00;;;;;;;;5016875;28;45593;-71
2023/04/03 05:00:11;;;;;;;;;17.25;15.25;;;;;;;;5016923;28;45575;-71
2023/04/03 05:02:36;;;;;;;;;12.50;11.50;;;;;;;;5016759;28;45569;-73
2023/04/03 05:05:01;;;;;;;;;15.50;12.50;;;;;;;;5016623;28;46446;-72
2023/04/03 05:07:26;;;;;;;;;17.50;16.00;;;;;;;;5017256;28;45448;-72
2023/04/03 05:09:52;;;;;;;;;23.00;19.50;;;;;;;;5017056;28;45422;-72
2023/04/03 05:12:17;;;;;;;;;15.25;14.00;;;;;;;;5017021;28;45442;-71
2023/04/03 05:14:42;;;;;;;;;17.00;13.50;;;;;;;;4998577;28;47994;-71
2023/04/03 05:17:07;;;;;;;;;21.50;21.50;;;;;;;;5015983;28;45451;-71
2023/04/03 05:19:33;;;;;;;;;20.50;19.75;;;;;;;;5016720;28;45347;-71
2023/04/03 05:21:58;;;;;;;;;15.25;14.75;;;;;;;;5016682;28;45359;-71
2023/04/03 05:24:23;;;;;;;;;18.25;18.00;;;;;;;;5016817;28;45397;-72
2023/04/03 05:26:48;;;;;;;;;22.00;19.75;;;;;;;;5016401;28;45461;-70
2023/04/03 05:29:14;;;;;;;;;23.50;18.50;;;;;;;;4998504;28;45448;-70
2023/04/03 05:31:39;;;;;;;;;23.00;19.75;;;;;;;;5016706;28;45348;-70
2023/04/03 05:34:04;;;;;;;;;22.50;17.75;;;;;;;;5016187;28;46284;-70
2023/04/03 05:36:29;;;;;;;;;22.00;20.75;;;;;;;;5016727;28;45392;-71
2023/04/03 05:38:56;;;;;;;;;25.25;19.00;;;;;;;;5016633;28;45435;-72
2023/04/03 05:41:21;;;;;;;;;18.50;17.25;;;;;;;;5016747;28;45347;-73
2023/04/03 05:43:46;;;;;;;;;17.25;14.50;;;;;;;;5016144;28;45698;-72
2023/04/03 05:46:12;;;;;;;;;18.25;17.50;;;;;;;;5016487;28;45487;-71
2023/04/03 05:48:38;;;;;;;;;14.25;14.25;;;;;;;;5016780;28;45319;-73
2023/04/03 05:51:03;;;;;;;;;18.00;17.00;;;;;;;;5016962;28;45509;-73
2023/04/03 05:53:31;;;;;;;;;20.50;17.75;;;;;;;;5015669;28;46191;-73
2023/04/03 05:55:56;;;;;;;;;18.50;16.50;;;;;;;;5016344;28;45542;-73
2023/04/03 05:58:21;;;;;;;;;21.50;18.50;;;;;;;;4998024;28;45353;-73
2023/04/03 06:00:46;;;;;;;;;24.25;20.50;;;;;;;;5016587;28;45369;-73
2023/04/03 06:03:12;;;;;;;;;15.25;15.25;;;;;;;;5016149;28;45462;-73
2023/04/03 06:05:37;;;;;;;;;18.25;16.00;;;;;;;;4998296;28;45388;-72
2023/04/03 06:08:03;;;;;;;;;26.25;20.75;;;;;;;;5015980;28;45300;-73
2023/04/03 06:10:28;;;;;;;;;15.25;15.25;;;;;;;;5016300;28;45446;-72
2023/04/03 06:12:53;;;;;;;;;19.25;17.25;;;;;;;;5015954;28;45471;-71
2023/04/03 06:15:18;;;;;;;;;25.25;22.50;;;;;;;;5016043;28;45423;-72
2023/04/03 06:17:44;;;;;;;;;20.75;20.25;;;;;;;;5015986;28;45425;-72
2023/04/03 06:20:09;;;;;;;;;27.00;23.25;;;;;;;;5016174;28;45605;-71
2023/04/03 06:22:35;;;;;;;;;22.25;20.50;;;;;;;;5015552;28;45987;-72
2023/04/03 06:25:00;;;;;;;;;24.50;22.50;;;;;;;;5016082;28;45416;-72
2023/04/03 06:27:26;;;;;;;;;18.75;18.75;;;;;;;;4997692;28;45526;-73
2023/04/03 06:29:51;;;;;;;;;25.50;21.75;;;;;;;;5015815;28;45555;-72
2023/04/03 06:32:16;;;;;;;;;21.75;21.50;;;;;;;;4997805;28;45489;-72
2023/04/03 06:34:41;;;;;;;;;18.75;17.25;;;;;;;;5014685;28;45433;-72
2023/04/03 06:37:10;;;;;;;;;28.50;24.00;;;;;;;;5016134;28;45343;-72
2023/04/03 06:39:35;;;;;;;;;23.75;21.50;;;;;;;;5015986;28;45593;-72
2023/04/03 06:42:01;;;;;;;;;16.00;14.75;;;;;;;;5015398;28;46753;-73
2023/04/03 06:44:26;;;;;;;;;20.75;20.00;;;;;;;;5015397;28;45554;-73
2023/04/03 06:46:51;;;;;;;;;20.50;20.50;;;;;;;;5015270;28;45382;-72
2023/04/03 06:49:16;;;;;;;;;26.50;24.50;;;;;;;;5015238;28;45539;-71
2023/04/03 06:51:42;;;;;;;;;26.00;23.00;;;;;;;;5015525;28;46732;-71
2023/04/03 06:54:08;;;;;;;;;11.75;9.75;;;;;;;;5015375;28;45447;-71
2023/04/03 06:56:33;;;;;;;;;25.00;25.00;;;;;;;;5015363;28;45443;-69
2023/04/03 06:58:58;;;;;;;;;26.50;20.75;;;;;;;;5015603;28;45364;-69
2023/04/03 07:01:26;;;;;;;;;17.00;17.00;;;;;;;;5015766;28;45337;-70
2023/04/03 07:03:51;;;;;;;;;22.00;19.00;;;;;;;;5015489;28;45322;-71
2023/04/03 07:06:18;;;;;;;;;25.00;22.75;;;;;;;;5015567;28;45342;-69
2023/04/03 07:08:43;;;;;;;;;22.50;21.50;;;;;;;;5015355;28;45377;-70
2023/04/03 07:11:09;;;;;;;;;22.00;21.25;;;;;;;;4997420;28;46586;-69
2023/04/03 07:13:34;;;;;;;;;18.50;18.50;;;;;;;;4997436;28;45623;-71
2023/04/03 07:16:00;;;;;;;;;25.00;21.25;;;;;;;;5015642;28;45376;-70
2023/04/03 07:18:26;;;;;;;;;20.75;19.50;;;;;;;;5015550;28;45309;-70
2023/04/03 07:20:51;;;;;;;;;25.00;22.00;;;;;;;;4997409;28;48116;-71
2023/04/03 07:23:16;;;;;;;;;19.75;19.75;;;;;;;;5014918;28;45375;-71
2023/04/03 07:25:46;;;;;;;;;21.75;20.25;;;;;;;;5015255;28;45694;-71
2023/04/03 07:28:11;;;;;;;;;21.50;21.50;;;;;;;;5015258;28;45464;-71
2023/04/03 07:30:44;;;;;;;;;27.50;24.00;;;;;;;;5014757;28;45388;-70
2023/04/03 07:33:10;;;;;;;;;22.75;21.00;;;;;;;;5015205;28;45508;-71
2023/04/03 07:35:35;;;;;;;;;22.00;21.75;;;;;;;;5014919;28;45436;-71
2023/04/03 07:38:01;;;;;;;;;21.50;20.50;;;;;;;;5015215;28;45238;-71
2023/04/03 07:40:26;;;;;;;;;14.25;13.25;;;;;;;;5014299;28;46165;-71
2023/04/03 07:42:52;;;;;;;;;21.50;20.50;;;;;;;;5014694;28;45452;-71
2023/04/03 07:45:17;;;;;;;;;26.75;23.50;;;;;;;;5015281;28;45257;-71
2023/04/03 07:47:42;;;;;;;;;17.00;16.50;;;;;;;;5015310;28;45336;-71
2023/04/03 07:50:08;;;;;;;;;16.00;16.00;;;;;;;;5014744;28;45467;-71
2023/04/03 07:52:33;;;;;;;;;18.00;17.00;;;;;;;;5014868;28;45346;-71
2023/04/03 07:54:58;;;;;;;;;21.75;19.75;;;;;;;;5014762;28;45383;-71
2023/04/03 07:57:23;;;;;;;;;22.00;18.75;;;;;;;;5014852;28;45427;-71
2023/04/03 07:59:48;;;;;;;;;21.50;20.00;;;;;;;;5014649;28;46695;-71
2023/04/03 08:02:14;;;;;;;;;20.50;20.50;;;;;;;;5014733;28;45229;-71
2023/04/03 08:04:39;;;;;;;;;24.25;23.00;;;;;;;;5015002;28;45300;-71
2023/04/03 08:07:04;;;;;;;;;17.50;17.50;;;;;;;;5014625;28;45326;-71
2023/04/03 08:09:29;;;;;;;;;21.50;19.75;;;;;;;;5014115;28;46449;-71
2023/04/03 08:11:55;;;;;;;;;23.25;17.00;;;;;;;;5014818;28;45353;-71
2023/04/03 08:14:20;;;;;;;;;17.00;17.00;;;;;;;;5014797;28;45412;-70
2023/04/03 08:16:46;;;;;;;;;18.75;16.50;;;;;;;;4996851;28;45368;-70
2023/04/03 08:19:13;;;;;;;;;21.75;16.75;;;;;;;;5014210;28;47065;-70
2023/04/03 08:21:39;;;;;;;;;14.75;10.75;;;;;;;;5014169;28;45330;-70
2023/04/03 08:24:05;;;;;;;;;14.00;14.00;;;;;;;;5014306;28;45447;-70
2023/04/03 08:26:30;;;;;;;;;18.75;17.75;;;;;;;;5014534;28;45340;-70
2023/04/03 08:28:56;;;;;;;;;17.25;16.75;;;;;;;;5014367;28;45840;-69
2023/04/03 08:31:21;;;;;;;;;18.00;16.75;;;;;;;;4996693;28;45310;-70
2023/04/03 08:33:46;;;;;;;;;17.00;15.25;;;;;;;;5014422;28;45383;-70
2023/04/03 08:36:22;;;;;;;;;15.75;12.50;;;;;;;;5014397;28;46687;-70
2023/04/03 08:38:48;;;;;;;;;12.75;11.50;;;;;;;;5014067;28;45507;-70
2023/04/03 08:41:16;;;;;;;;;13.50;13.50;;;;;;;;5013961;28;45277;-70
2023/04/03 08:43:41;;;;;;;;;16.00;15.00;;;;;;;;5014498;28;45425;-70
2023/04/03 08:46:11;;;;;;;;;10.00;8.25;;;;;;;;5014390;28;45324;-70
2023/04/03 08:48:38;;;;;;;;;10.75;8.00;;;;;;;;5014025;28;46622;-70
2023/04/03 08:51:11;;;;;;;;;11.00;10.00;;;;;;;;5013813;28;45329;-70
2023/04/03 08:53:39;;;;;;;;;9.75;9.25;;;;;;;;5016646;28;45328;-69
2023/04/03 08:56:08;;;;;;;;;6.75;6.75;;;;;;;;5017709;28;45264;-70
2023/04/03 08:58:40;;;;;;;;;7.50;7.50;;;;;;;;5017441;28;45664;-69
2023/04/03 09:01:14;;;;;;;;;8.50;8.50;;;;;;;;4999499;28;46301;-70
2023/04/03 09:03:40;;;;;;;;;7.75;6.50;;;;;;;;5017377;28;45163;-70
2023/04/03 09:06:31;;;;;;;;;9.75;9.75;;;;;;;;5017253;28;45399;-70
2023/04/03 09:09:05;;;;;;;;;9.00;9.00;;;;;;;;5017097;28;47293;-70
2023/04/03 09:11:53;;;;;;;;;9.00;9.00;;;;;;;;5015894;28;45308;-69
2023/04/03 09:14:37;;;;;;;;;10.75;9.00;;;;;;;;5017396;28;45263;-69
2023/04/03 09:17:21;;;;;;;;;12.75;9.00;;;;;;;;5016690;28;45392;-69
2023/04/03 09:19:46;;;;;;;;;8.50;8.50;;;;;;;;5016491;28;45295;-70
2023/04/03 09:22:12;;;;;;;;;9.25;9.25;;;;;;;;5010053;28;45377;-69
2023/04/03 09:24:38;;;;;;;;;9.25;9.25;;;;;;;;5018006;28;45449;-69
2023/04/03 09:27:10;;;;;;;;;9.75;9.50;;;;;;;;5004552;28;45511;-70
2023/04/03 09:29:39;;;;;;;;;5.50;5.50;;;;;;;;5026017;28;45827;-70
2023/04/03 09:32:17;;;;;;;;;9.75;9.25;;;;;;;;5015827;28;45498;-70
2023/04/03 09:34:43;;;;;;;;;9.00;9.00;;;;;;;;4997924;28;45506;-71
2023/04/03 09:37:09;;;;;;;;;6.75;6.50;;;;;;;;5028853;28;45540;-71
2023/04/03 09:39:54;;;;;;;;;12.75;9.00;;;;;;;;5025501;28;46178;-70
2023/04/03 09:42:20;;;;;;;;;7.75;7.00;;;;;;;;5019960;28;45533;-71
2023/04/03 09:44:53;;;;;;;;;9.00;9.00;;;;;;;;5017355;28;45448;-70
2023/04/03 09:47:18;;;;;;;;;8.50;8.50;;;;;;;;5026701;28;45471;-70
2023/04/03 09:49:43;;;;;;;;;5.00;5.00;;;;;;;;5026544;28;47402;-71
2023/04/03 09:52:25;;;;;;;;;8.00;6.75;;;;;;;;4997482;28;45589;-70
2023/04/03 09:54:50;;;;;;;;;12.75;12.00;;;;;;;;5023613;28;45479;-71
2023/04/03 09:57:16;;;;;;;;;8.50;8.25;;;;;;;;5005163;28;45501;-71
2023/04/03 09:59:45;;;;;;;;;7.00;7.00;;;;;;;;5025520;28;45447;-71
2023/04/03 10:02:11;;;;;;;;;6.00;6.00;;;;;;;;5030543;28;45340;-70
2023/04/03 10:04:37;;;;;;;;;16.25;10.75;;;;;;;;5018011;28;45418;-71
2023/04/03 10:07:03;;;;;;;;;8.00;8.00;;;;;;;;5026430;28;45483;-70
2023/04/03 10:09:29;;;;;;;;;9.25;9.25;;;;;;;;5026884;28;46370;-71
2023/04/03 10:12:01;;;;;;;;;6.00;6.00;;;;;;;;5018827;28;45489;-71
2023/04/03 10:14:28;;;;;;;;;8.25;8.25;;;;;;;;5012946;28;45732;-70
2023/04/03 10:17:00;;;;;;;;;4.25;4.25;;;;;;;;5030650;28;45640;-71
2023/04/03 10:19:31;;;;;;;;;7.00;7.00;;;;;;;;5023628;28;45597;-70
2023/04/03 10:22:03;;;;;;;;;4.00;4.00;;;;;;;;5022775;28;45458;-71
2023/04/03 10:24:28;;;;;;;;;5.00;4.25;;;;;;;;5032006;28;45798;-71
2023/04/03 10:26:59;;;;;;;;;9.25;8.25;;;;;;;;5018893;28;45407;-71
2023/04/03 10:29:31;;;;;;;;;7.00;5.75;;;;;;;;5026735;28;45444;-70
2023/04/03 10:32:10;;;;;;;;;4.00;4.00;;;;;;;;5027634;28;45478;-70
2023/04/03 10:34:38;;;;;;;;;5.25;5.25;;;;;;;;5000395;28;45294;-70
2023/04/03 10:37:18;;;;;;;;;9.25;9.25;;;;;;;;5015228;28;45637;-70
2023/04/03 10:39:53;;;;;;;;;7.25;6.00;;;;;;;;5024182;28;45413;-70
2023/04/03 10:42:37;;;;;;;;;3.50;3.50;;;;;;;;5008001;28;45460;-70
2023/04/03 10:45:15;;;;;;;;;6.25;6.25;;;;;;;;5018783;28;45364;-71
2023/04/03 10:47:55;;;;;;;;;8.75;7.50;;;;;;;;5025989;28;45383;-70
2023/04/03 10:50:31;;;;;;;;;8.00;8.00;;;;;;;;5018972;28;46366;-70
2023/04/03 10:52:56;;;;;;;;;7.25;7.25;;;;;;;;5015333;28;45468;-71
2023/04/03 10:55:31;;;;;;;;;6.50;5.25;;;;;;;;5027241;28;45408;-70
2023/04/03 10:57:58;;;;;;;;;5.00;5.00;;;;;;;;5015233;28;45432;-70
2023/04/03 11:00:33;;;;;;;;;7.75;7.00;;;;;;;;5015298;28;45498;-70
2023/04/03 11:03:05;;;;;;;;;4.00;4.00;;;;;;;;5015350;28;45400;-69
2023/04/03 11:05:30;;;;;;;;;4.00;4.00;;;;;;;;5015226;28;45404;-70
2023/04/03 11:07:57;;;;;;;;;3.25;3.25;;;;;;;;5015314;28;45386;-71
2023/04/03 11:10:32;;;;;;;;;6.00;4.75;;;;;;;;4994122;28;45587;-71
2023/04/03 11:13:16;;;;;;;;;3.75;3.75;;;;;;;;5006200;28;45452;-71
2023/04/03 11:15:42;;;;;;;;;5.25;5.25;;;;;;;;5014779;28;45555;-71
2023/04/03 11:18:15;;;;;;;;;4.50;4.50;;;;;;;;5014498;28;45337;-71
2023/04/03 11:20:43;;;;;;;;;4.75;4.75;;;;;;;;5015125;28;45404;-71
2023/04/03 11:23:11;;;;;;;;;4.00;4.00;;;;;;;;5014920;28;45367;-71
2023/04/03 11:25:38;;;;;;;;;4.00;3.00;;;;;;;;5014222;28;45424;-71
2023/04/03 11:28:04;;;;;;;;;3.75;3.00;;;;;;;;5015106;28;45258;-70
2023/04/03 11:30:30;;;;;;;;;4.00;4.00;;;;;;;;4997115;28;46751;-70
2023/04/03 11:33:13;;;;;;;;;3.50;3.50;;;;;;;;5014801;28;45313;-70
2023/04/03 11:35:42;;;;;;;;;3.00;3.00;;;;;;;;5014935;28;45371;-70
2023/04/03 11:38:14;;;;;;;;;6.00;5.00;;;;;;;;5014898;28;45417;-70
2023/04/03 11:40:40;;;;;;;;;4.25;4.00;;;;;;;;5014617;28;47277;-71
2023/04/03 11:43:07;;;;;;;;;5.00;4.25;;;;;;;;4996206;28;45649;-71
2023/04/03 11:45:35;;;;;;;;;7.75;6.75;;;;;;;;5014778;28;45435;-71
2023/04/03 11:48:23;;;;;;;;;5.75;4.00;;;;;;;;5014835;28;45396;-70
2023/04/03 11:50:50;;;;;;;;;5.00;5.00;;;;;;;;5006266;28;46165;-70
2023/04/03 11:53:15;;;;;;;;;5.00;4.00;;;;;;;;5014525;28;45489;-70
2023/04/03 11:55:45;;;;;;;;;5.00;5.00;;;;;;;;5014649;28;45330;-70
2023/04/03 11:58:31;;;;;;;;;4.50;4.00;;;;;;;;5014830;28;45402;-69
2023/04/03 12:01:01;;;;;;;;;4.75;4.75;;;;;;;;5013568;28;45380;-70
2023/04/03 12:03:26;;;;;;;;;3.00;3.00;;;;;;;;5014119;28;45400;-70
2023/04/03 12:05:51;;;;;;;;;6.50;6.00;;;;;;;;5013709;28;45374;-70
2023/04/03 12:08:26;;;;;;;;;4.25;3.75;;;;;;;;5014312;28;45510;-70
2023/04/03 12:11:10;;;;;;;;;5.00;3.50;;;;;;;;5014194;28;45695;-70
2023/04/03 12:13:36;;;;;;;;;2.00;1.00;;;;;;;;5014289;28;45263;-70
2023/04/03 12:16:03;;;;;;;;;7.75;6.00;;;;;;;;5014311;28;45406;-70
2023/04/03 12:18:53;;;;;;;;;2.75;2.75;;;;;;;;5013995;28;45430;-70
2023/04/03 12:21:22;;;;;;;;;5.25;5.25;;;;;;;;4995902;28;47998;-71
2023/04/03 12:24:03;;;;;;;;;5.50;4.25;;;;;;;;4996143;28;45424;-71
2023/04/03 12:26:37;;;;;;;;;7.00;5.00;;;;;;;;5015256;28;45423;-70
2023/04/03 12:29:15;;;;;;;;;2.25;2.25;;;;;;;;5017616;28;45264;-71
2023/04/03 12:31:46;;;;;;;;;3.50;3.50;;;;;;;;5017549;28;46250;-71
2023/04/03 12:34:34;;;;;;;;;2.00;2.00;;;;;;;;5017375;28;45429;-69
2023/04/03 12:37:22;;;;;;;;;3.00;3.00;;;;;;;;5016437;28;45609;-70
2023/04/03 12:39:50;;;;;;;;;6.75;5.50;;;;;;;;5017719;28;45366;-71
2023/04/03 12:42:34;;;;;;;;;3.00;2.00;;;;;;;;5017660;28;45519;-71
2023/04/03 12:45:09;;;;;;;;;4.25;4.25;;;;;;;;5032904;28;45372;-70
2023/04/03 12:47:39;;;;;;;;;6.75;6.25;;;;;;;;5017594;28;45483;-70
2023/04/03 12:50:15;;;;;;;;;7.75;6.25;;;;;;;;5017538;28;45325;-71
2023/04/03 12:52:45;;;;;;;;;6.00;4.75;;;;;;;;5017240;28;45504;-70
2023/04/03 12:55:17;;;;;;;;;8.00;5.25;;;;;;;;5017381;28;45438;-70
2023/04/03 12:57:42;;;;;;;;;5.75;5.75;;;;;;;;5016581;28;45407;-71
2023/04/03 13:00:21;;;;;;;;;4.75;4.75;;;;;;;;4999511;28;45405;-71
2023/04/03 13:02:46;;;;;;;;;6.50;6.25;;;;;;;;5016786;28;45641;-71
2023/04/03 13:05:17;;;;;;;;;4.75;4.75;;;;;;;;4999128;28;45334;-71
2023/04/03 13:07:43;;;;;;;;;7.00;5.00;;;;;;;;5017488;28;45479;-71
2023/04/03 13:10:08;;;;;;;;;3.00;3.00;;;;;;;;4999045;28;45359;-70
2023/04/03 13:12:50;;;;;;;;;4.75;3.75;;;;;;;;5016887;28;45485;-71
2023/04/03 13:15:18;;;;;;;;;6.50;6.50;;;;;;;;4999248;28;45352;-72
2023/04/03 13:17:44;;;;;;;;;5.25;5.25;;;;;;;;5016061;28;45403;-70
2023/04/03 13:20:14;;;;;;;;;4.00;3.25;;;;;;;;5016870;28;45490;-71
2023/04/03 13:23:00;;;;;;;;;4.75;4.75;;;;;;;;5016757;28;45438;-70
2023/04/03 13:25:27;;;;;;;;;3.75;3.50;;;;;;;;4998803;28;45387;-70
2023/04/03 13:27:52;;;;;;;;;3.00;3.00;;;;;;;;5016770;28;45463;-70
2023/04/03 13:30:32;;;;;;;;;3.00;3.00;;;;;;;;5017099;28;45352;-70
2023/04/03 13:32:58;;;;;;;;;2.00;2.00;;;;;;;;4982586;28;45740;-70
2023/04/03 13:35:35;;;;;;;;;3.25;3.25;;;;;;;;5016802;28;45419;-70
2023/04/03 13:38:02;;;;;;;;;9.25;9.00;;;;;;;;5015898;28;45303;-70
2023/04/03 13:40:27;;;;;;;;;1.75;1.75;;;;;;;;5016952;28;45476;-71
2023/04/03 13:43:16;;;;;;;;;7.00;4.25;;;;;;;;4998487;28;47139;-70
2023/04/03 13:45:53;;;;;;;;;5.00;4.00;;;;;;;;5016659;28;45392;-70
2023/04/03 13:48:19;;;;;;;;;3.00;3.00;;;;;;;;5016502;28;45267;-70
2023/04/03 13:50:56;;;;;;;;;5.50;4.50;;;;;;;;5016900;28;45406;-70
2023/04/03 13:53:22;;;;;;;;;5.50;4.25;;;;;;;;5016412;28;45524;-70
2023/04/03 13:55:57;;;;;;;;;5.50;4.25;;;;;;;;5016494;28;45438;-71
2023/04/03 13:58:24;;;;;;;;;3.25;3.25;;;;;;;;5016787;28;45378;-71
2023/04/03 14:01:00;;;;;;;;;7.50;6.50;;;;;;;;5016526;28;45442;-69
2023/04/03 14:03:29;;;;;;;;;6.75;5.75;;;;;;;;5016110;28;45594;-71
2023/04/03 14:05:54;;;;;;;;;2.75;2.75;;;;;;;;4998631;28;45520;-71
2023/04/03 14:08:20;;;;;;;;;4.25;3.25;;;;;;;;5016543;28;45312;-69
2023/04/03 14:10:47;;;;;;;;;7.50;4.00;;;;;;;;5016390;28;45361;-70
2023/04/03 14:13:16;;;;;;;;;2.75;2.75;;;;;;;;5016134;28;46647;-70
2023/04/03 14:15:42;;;;;;;;;0.75;0.75;;;;;;;;5016391;28;45524;-70
2023/04/03 14:18:10;;;;;;;;;8.50;8.25;;;;;;;;5016040;28;45398;-70
2023/04/03 14:20:35;;;;;;;;;5.75;5.75;;;;;;;;5016211;28;45317;-70
2023/04/03 14:23:00;;;;;;;;;6.25;3.75;;;;;;;;5015846;28;47224;-70
2023/04/03 14:25:26;;;;;;;;;4.00;4.00;;;;;;;;5015700;28;45419;-70
2023/04/03 14:27:53;;;;;;;;;2.50;2.50;;;;;;;;5016323;28;45422;-70
2023/04/03 14:30:24;;;;;;;;;8.25;6.50;;;;;;;;5016328;28;45380;-70